sensor_id;sensor_type;location;lat;lon;timestamp;P1;durP1;ratioP1;P2;durP2;ratioP2
65375;SDS011;51976;47.332;9.404;2024-01-30T00:00:20;2.28;;;0.80;;
65375;SDS011;51976;47.332;9.404;2024-01-30T00:02:46;1.90;;;1.10;;
65375;SDS011;51976;47.332;9.404;2024-01-30T00:05:11;2.13;;;1.10;;
65375;SDS011;51976;47.332;9.404;2024-01-30T00:07:37;2.88;;;1.13;;
65375;SDS011;51976;47.332;9.404;2024-01-30T00:10:02;3.47;;;1.17;;
65375;SDS011;51976;47.332;9.404;2024-01-30T00:12:28;2.75;;;0.77;;
65375;SDS011;51976;47.332;9.404;2024-01-30T00:14:53;3.17;;;0.93;;
65375;SDS011;51976;47.332;9.404;2024-01-30T00:17:19;2.17;;;0.70;;
65375;SDS011;51976;47.332;9.404;2024-01-30T00:19:45;2.42;;;0.95;;
65375;SDS011;51976;47.332;9.404;2024-01-30T00:22:11;4.50;;;1.10;;
65375;SDS011;51976;47.332;9.404;2024-01-30T00:24:36;2.55;;;1.25;;
65375;SDS011;51976;47.332;9.404;2024-01-30T00:27:02;4.82;;;1.33;;
65375;SDS011;51976;47.332;9.404;2024-01-30T00:29:27;3.42;;;0.90;;
65375;SDS011;51976;47.332;9.404;2024-01-30T00:31:55;2.63;;;0.80;;
65375;SDS011;51976;47.332;9.404;2024-01-30T00:34:21;1.67;;;1.10;;
65375;SDS011;51976;47.332;9.404;2024-01-30T00:36:47;3.72;;;0.90;;
65375;SDS011;51976;47.332;9.404;2024-01-30T00:39:12;2.45;;;1.20;;
65375;SDS011;51976;47.332;9.404;2024-01-30T00:41:37;2.05;;;0.80;;
65375;SDS011;51976;47.332;9.404;2024-01-30T00:44:03;2.38;;;0.88;;
65375;SDS011;51976;47.332;9.404;2024-01-30T00:46:28;1.70;;;0.82;;
65375;SDS011;51976;47.332;9.404;2024-01-30T00:48:54;2.38;;;0.85;;
65375;SDS011;51976;47.332;9.404;2024-01-30T00:51:19;1.65;;;0.70;;
65375;SDS011;51976;47.332;9.404;2024-01-30T00:53:44;2.85;;;0.68;;
65375;SDS011;51976;47.332;9.404;2024-01-30T00:56:10;1.73;;;0.70;;
65375;SDS011;51976;47.332;9.404;2024-01-30T00:58:35;3.33;;;1.10;;
65375;SDS011;51976;47.332;9.404;2024-01-30T01:01:01;4.45;;;1.08;;
65375;SDS011;51976;47.332;9.404;2024-01-30T01:03:26;3.97;;;1.00;;
65375;SDS011;51976;47.332;9.404;2024-01-30T01:05:51;5.15;;;0.95;;
65375;SDS011;51976;47.332;9.404;2024-01-30T01:08:17;3.13;;;0.90;;
65375;SDS011;51976;47.332;9.404;2024-01-30T01:10:43;2.83;;;1.10;;
65375;SDS011;51976;47.332;9.404;2024-01-30T01:13:08;4.00;;;1.70;;
65375;SDS011;51976;47.332;9.404;2024-01-30T01:15:34;5.30;;;1.40;;
65375;SDS011;51976;47.332;9.404;2024-01-30T01:18:00;4.03;;;1.23;;
65375;SDS011;51976;47.332;9.404;2024-01-30T01:20:25;3.20;;;1.05;;
65375;SDS011;51976;47.332;9.404;2024-01-30T01:22:50;1.95;;;0.70;;
65375;SDS011;51976;47.332;9.404;2024-01-30T01:25:17;3.42;;;1.00;;
65375;SDS011;51976;47.332;9.404;2024-01-30T01:27:42;2.33;;;0.80;;
65375;SDS011;51976;47.332;9.404;2024-01-30T01:30:09;2.65;;;0.90;;
65375;SDS011;51976;47.332;9.404;2024-01-30T01:32:36;2.15;;;0.98;;
65375;SDS011;51976;47.332;9.404;2024-01-30T01:35:03;2.15;;;0.85;;
65375;SDS011;51976;47.332;9.404;2024-01-30T01:37:30;4.50;;;1.10;;
65375;SDS011;51976;47.332;9.404;2024-01-30T01:39:56;1.70;;;0.68;;
65375;SDS011;51976;47.332;9.404;2024-01-30T01:42:21;1.80;;;0.30;;
65375;SDS011;51976;47.332;9.404;2024-01-30T01:44:47;1.90;;;0.63;;
65375;SDS011;51976;47.332;9.404;2024-01-30T01:47:12;1.33;;;0.63;;
65375;SDS011;51976;47.332;9.404;2024-01-30T01:49:39;1.73;;;0.75;;
65375;SDS011;51976;47.332;9.404;2024-01-30T01:52:04;2.53;;;1.00;;
65375;SDS011;51976;47.332;9.404;2024-01-30T01:54:31;2.50;;;0.80;;
65375;SDS011;51976;47.332;9.404;2024-01-30T01:56:56;1.52;;;0.55;;
65375;SDS011;51976;47.332;9.404;2024-01-30T01:59:22;2.15;;;0.63;;
65375;SDS011;51976;47.332;9.404;2024-01-30T02:01:49;1.50;;;0.70;;
65375;SDS011;51976;47.332;9.404;2024-01-30T02:04:15;1.50;;;0.65;;
65375;SDS011;51976;47.332;9.404;2024-01-30T02:06:41;2.10;;;0.98;;
65375;SDS011;51976;47.332;9.404;2024-01-30T02:09:07;2.47;;;0.60;;
65375;SDS011;51976;47.332;9.404;2024-01-30T02:11:34;2.25;;;0.80;;
65375;SDS011;51976;47.332;9.404;2024-01-30T02:14:03;1.85;;;0.90;;
65375;SDS011;51976;47.332;9.404;2024-01-30T02:16:29;2.38;;;0.75;;
65375;SDS011;51976;47.332;9.404;2024-01-30T02:18:55;1.60;;;0.80;;
65375;SDS011;51976;47.332;9.404;2024-01-30T02:21:20;1.95;;;0.85;;
65375;SDS011;51976;47.332;9.404;2024-01-30T02:23:48;2.40;;;1.27;;
65375;SDS011;51976;47.332;9.404;2024-01-30T02:26:15;1.88;;;0.77;;
65375;SDS011;51976;47.332;9.404;2024-01-30T02:28:41;1.85;;;0.80;;
65375;SDS011;51976;47.332;9.404;2024-01-30T02:31:06;1.90;;;0.80;;
65375;SDS011;51976;47.332;9.404;2024-01-30T02:33:31;1.95;;;0.80;;
65375;SDS011;51976;47.332;9.404;2024-01-30T02:35:57;4.22;;;0.85;;
65375;SDS011;51976;47.332;9.404;2024-01-30T02:38:22;0.88;;;0.43;;
65375;SDS011;51976;47.332;9.404;2024-01-30T02:40:48;3.05;;;0.60;;
65375;SDS011;51976;47.332;9.404;2024-01-30T02:43:14;1.77;;;0.50;;
65375;SDS011;51976;47.332;9.404;2024-01-30T02:45:39;1.45;;;0.50;;
65375;SDS011;51976;47.332;9.404;2024-01-30T02:48:04;0.82;;;0.40;;
65375;SDS011;51976;47.332;9.404;2024-01-30T02:50:30;1.15;;;0.52;;
65375;SDS011;51976;47.332;9.404;2024-01-30T02:52:56;1.20;;;0.70;;
65375;SDS011;51976;47.332;9.404;2024-01-30T02:55:21;1.90;;;0.68;;
65375;SDS011;51976;47.332;9.404;2024-01-30T02:57:46;1.95;;;0.65;;
65375;SDS011;51976;47.332;9.404;2024-01-30T03:00:12;0.70;;;0.35;;
65375;SDS011;51976;47.332;9.404;2024-01-30T03:02:37;0.85;;;0.40;;
65375;SDS011;51976;47.332;9.404;2024-01-30T03:05:03;0.65;;;0.40;;
65375;SDS011;51976;47.332;9.404;2024-01-30T03:07:30;1.05;;;0.57;;
65375;SDS011;51976;47.332;9.404;2024-01-30T03:09:55;1.20;;;0.50;;
65375;SDS011;51976;47.332;9.404;2024-01-30T03:12:21;1.50;;;0.70;;
65375;SDS011;51976;47.332;9.404;2024-01-30T03:14:47;1.05;;;0.55;;
65375;SDS011;51976;47.332;9.404;2024-01-30T03:17:12;0.82;;;0.45;;
65375;SDS011;51976;47.332;9.404;2024-01-30T03:19:38;0.80;;;0.45;;
65375;SDS011;51976;47.332;9.404;2024-01-30T03:22:03;1.65;;;0.60;;
65375;SDS011;51976;47.332;9.404;2024-01-30T03:24:29;0.68;;;0.32;;
65375;SDS011;51976;47.332;9.404;2024-01-30T03:26:54;1.00;;;0.50;;
65375;SDS011;51976;47.332;9.404;2024-01-30T03:29:20;1.27;;;0.50;;
65375;SDS011;51976;47.332;9.404;2024-01-30T03:31:45;1.38;;;0.50;;
65375;SDS011;51976;47.332;9.404;2024-01-30T03:34:10;1.10;;;0.50;;
65375;SDS011;51976;47.332;9.404;2024-01-30T03:36:36;1.42;;;0.47;;
65375;SDS011;51976;47.332;9.404;2024-01-30T03:39:01;1.52;;;0.52;;
65375;SDS011;51976;47.332;9.404;2024-01-30T03:41:27;1.10;;;0.63;;
65375;SDS011;51976;47.332;9.404;2024-01-30T03:43:52;3.40;;;0.65;;
65375;SDS011;51976;47.332;9.404;2024-01-30T03:46:18;1.52;;;0.70;;
65375;SDS011;51976;47.332;9.404;2024-01-30T03:48:44;1.58;;;0.77;;
65375;SDS011;51976;47.332;9.404;2024-01-30T03:51:10;1.50;;;0.70;;
65375;SDS011;51976;47.332;9.404;2024-01-30T03:53:39;1.55;;;0.85;;
65375;SDS011;51976;47.332;9.404;2024-01-30T03:56:06;1.70;;;0.47;;
65375;SDS011;51976;47.332;9.404;2024-01-30T03:58:31;0.90;;;0.60;;
65375;SDS011;51976;47.332;9.404;2024-01-30T04:00:56;8.35;;;5.10;;
65375;SDS011;51976;47.332;9.404;2024-01-30T04:03:22;8.80;;;6.25;;
65375;SDS011;51976;47.332;9.404;2024-01-30T04:05:47;7.55;;;6.75;;
65375;SDS011;51976;47.332;9.404;2024-01-30T04:08:12;3.97;;;3.55;;
65375;SDS011;51976;47.332;9.404;2024-01-30T04:10:38;2.55;;;2.35;;
65375;SDS011;51976;47.332;9.404;2024-01-30T04:13:03;3.13;;;2.22;;
65375;SDS011;51976;47.332;9.404;2024-01-30T04:15:28;3.88;;;1.58;;
65375;SDS011;51976;47.332;9.404;2024-01-30T04:17:57;3.05;;;1.52;;
65375;SDS011;51976;47.332;9.404;2024-01-30T04:20:23;2.70;;;2.10;;
65375;SDS011;51976;47.332;9.404;2024-01-30T04:22:48;2.58;;;1.98;;
65375;SDS011;51976;47.332;9.404;2024-01-30T04:25:13;2.65;;;1.60;;
65375;SDS011;51976;47.332;9.404;2024-01-30T04:27:39;4.35;;;1.23;;
65375;SDS011;51976;47.332;9.404;2024-01-30T04:30:04;2.28;;;1.30;;
65375;SDS011;51976;47.332;9.404;2024-01-30T04:32:30;4.57;;;1.42;;
65375;SDS011;51976;47.332;9.404;2024-01-30T04:34:56;3.35;;;1.10;;
65375;SDS011;51976;47.332;9.404;2024-01-30T04:37:22;1.90;;;1.30;;
65375;SDS011;51976;47.332;9.404;2024-01-30T04:39:47;2.15;;;1.20;;
65375;SDS011;51976;47.332;9.404;2024-01-30T04:42:13;3.72;;;1.48;;
65375;SDS011;51976;47.332;9.404;2024-01-30T04:44:38;5.45;;;1.63;;
65375;SDS011;51976;47.332;9.404;2024-01-30T04:47:04;3.55;;;1.88;;
65375;SDS011;51976;47.332;9.404;2024-01-30T04:49:31;1.58;;;0.70;;
65375;SDS011;51976;47.332;9.404;2024-01-30T04:51:56;5.03;;;2.20;;
65375;SDS011;51976;47.332;9.404;2024-01-30T04:54:22;5.32;;;2.60;;
65375;SDS011;51976;47.332;9.404;2024-01-30T04:56:48;3.75;;;2.20;;
65375;SDS011;51976;47.332;9.404;2024-01-30T04:59:13;3.20;;;1.30;;
65375;SDS011;51976;47.332;9.404;2024-01-30T05:01:39;2.53;;;1.40;;
65375;SDS011;51976;47.332;9.404;2024-01-30T05:04:06;3.55;;;1.50;;
65375;SDS011;51976;47.332;9.404;2024-01-30T05:06:33;3.90;;;1.42;;
65375;SDS011;51976;47.332;9.404;2024-01-30T05:08:58;4.18;;;1.80;;
65375;SDS011;51976;47.332;9.404;2024-01-30T05:11:23;3.78;;;1.75;;
65375;SDS011;51976;47.332;9.404;2024-01-30T05:13:49;3.90;;;2.00;;
65375;SDS011;51976;47.332;9.404;2024-01-30T05:16:14;3.45;;;1.85;;
65375;SDS011;51976;47.332;9.404;2024-01-30T05:18:39;3.17;;;1.63;;
65375;SDS011;51976;47.332;9.404;2024-01-30T05:21:05;3.92;;;1.80;;
65375;SDS011;51976;47.332;9.404;2024-01-30T05:23:31;2.85;;;1.50;;
65375;SDS011;51976;47.332;9.404;2024-01-30T05:25:56;4.38;;;1.90;;
65375;SDS011;51976;47.332;9.404;2024-01-30T05:28:22;2.47;;;1.70;;
65375;SDS011;51976;47.332;9.404;2024-01-30T05:30:47;6.00;;;2.28;;
65375;SDS011;51976;47.332;9.404;2024-01-30T05:33:12;7.25;;;3.58;;
65375;SDS011;51976;47.332;9.404;2024-01-30T05:35:38;7.65;;;3.08;;
65375;SDS011;51976;47.332;9.404;2024-01-30T05:38:03;5.15;;;2.97;;
65375;SDS011;51976;47.332;9.404;2024-01-30T05:40:29;12.32;;;2.70;;
65375;SDS011;51976;47.332;9.404;2024-01-30T05:42:55;4.80;;;2.60;;
65375;SDS011;51976;47.332;9.404;2024-01-30T05:45:21;4.35;;;2.22;;
65375;SDS011;51976;47.332;9.404;2024-01-30T05:47:48;3.40;;;1.90;;
65375;SDS011;51976;47.332;9.404;2024-01-30T05:50:13;4.63;;;2.08;;
65375;SDS011;51976;47.332;9.404;2024-01-30T05:52:39;3.13;;;1.75;;
65375;SDS011;51976;47.332;9.404;2024-01-30T05:55:04;2.38;;;1.50;;
65375;SDS011;51976;47.332;9.404;2024-01-30T05:57:30;3.60;;;1.60;;
65375;SDS011;51976;47.332;9.404;2024-01-30T05:59:56;3.55;;;1.83;;
65375;SDS011;51976;47.332;9.404;2024-01-30T06:02:21;4.63;;;2.15;;
65375;SDS011;51976;47.332;9.404;2024-01-30T06:04:46;3.70;;;2.00;;
65375;SDS011;51976;47.332;9.404;2024-01-30T06:07:12;3.85;;;1.83;;
65375;SDS011;51976;47.332;9.404;2024-01-30T06:09:37;3.78;;;1.95;;
65375;SDS011;51976;47.332;9.404;2024-01-30T06:12:05;5.05;;;2.35;;
65375;SDS011;51976;47.332;9.404;2024-01-30T06:14:30;4.68;;;1.98;;
65375;SDS011;51976;47.332;9.404;2024-01-30T06:16:56;3.83;;;2.30;;
65375;SDS011;51976;47.332;9.404;2024-01-30T06:19:21;4.93;;;2.58;;
65375;SDS011;51976;47.332;9.404;2024-01-30T06:21:46;4.28;;;2.67;;
65375;SDS011;51976;47.332;9.404;2024-01-30T06:24:12;3.35;;;1.90;;
65375;SDS011;51976;47.332;9.404;2024-01-30T06:26:37;3.58;;;2.03;;
65375;SDS011;51976;47.332;9.404;2024-01-30T06:29:02;3.97;;;2.40;;
65375;SDS011;51976;47.332;9.404;2024-01-30T06:31:28;5.10;;;2.40;;
65375;SDS011;51976;47.332;9.404;2024-01-30T06:33:53;2.97;;;1.70;;
65375;SDS011;51976;47.332;9.404;2024-01-30T06:36:19;5.10;;;3.17;;
65375;SDS011;51976;47.332;9.404;2024-01-30T06:38:45;8.68;;;3.40;;
65375;SDS011;51976;47.332;9.404;2024-01-30T06:41:10;5.88;;;3.20;;
65375;SDS011;51976;47.332;9.404;2024-01-30T06:43:35;6.22;;;3.38;;
65375;SDS011;51976;47.332;9.404;2024-01-30T06:46:01;7.38;;;3.35;;
65375;SDS011;51976;47.332;9.404;2024-01-30T06:48:26;5.35;;;2.80;;
65375;SDS011;51976;47.332;9.404;2024-01-30T06:50:54;5.18;;;2.67;;
65375;SDS011;51976;47.332;9.404;2024-01-30T06:53:20;7.80;;;3.17;;
65375;SDS011;51976;47.332;9.404;2024-01-30T06:55:45;5.82;;;2.97;;
65375;SDS011;51976;47.332;9.404;2024-01-30T06:58:11;10.80;;;4.90;;
65375;SDS011;51976;47.332;9.404;2024-01-30T07:00:36;17.65;;;5.47;;
65375;SDS011;51976;47.332;9.404;2024-01-30T07:03:02;13.43;;;5.47;;
65375;SDS011;51976;47.332;9.404;2024-01-30T07:05:27;8.93;;;3.30;;
65375;SDS011;51976;47.332;9.404;2024-01-30T07:07:53;8.38;;;3.58;;
65375;SDS011;51976;47.332;9.404;2024-01-30T07:10:18;6.22;;;2.85;;
65375;SDS011;51976;47.332;9.404;2024-01-30T07:12:44;5.57;;;3.00;;
65375;SDS011;51976;47.332;9.404;2024-01-30T07:15:09;5.97;;;2.80;;
65375;SDS011;51976;47.332;9.404;2024-01-30T07:17:35;5.28;;;2.42;;
65375;SDS011;51976;47.332;9.404;2024-01-30T07:20:01;9.50;;;4.45;;
65375;SDS011;51976;47.332;9.404;2024-01-30T07:22:30;6.53;;;3.22;;
65375;SDS011;51976;47.332;9.404;2024-01-30T07:24:56;8.48;;;3.47;;
65375;SDS011;51976;47.332;9.404;2024-01-30T07:27:22;11.02;;;3.78;;
65375;SDS011;51976;47.332;9.404;2024-01-30T07:29:48;8.93;;;3.25;;
65375;SDS011;51976;47.332;9.404;2024-01-30T07:32:14;6.85;;;2.97;;
65375;SDS011;51976;47.332;9.404;2024-01-30T07:34:39;6.28;;;2.80;;
65375;SDS011;51976;47.332;9.404;2024-01-30T07:37:06;11.73;;;4.10;;
65375;SDS011;51976;47.332;9.404;2024-01-30T07:39:33;10.43;;;3.50;;
65375;SDS011;51976;47.332;9.404;2024-01-30T07:42:01;5.85;;;3.20;;
65375;SDS011;51976;47.332;9.404;2024-01-30T07:44:26;6.20;;;3.47;;
65375;SDS011;51976;47.332;9.404;2024-01-30T07:46:52;19.95;;;5.50;;
65375;SDS011;51976;47.332;9.404;2024-01-30T07:49:17;16.42;;;4.53;;
65375;SDS011;51976;47.332;9.404;2024-01-30T07:51:43;17.48;;;3.50;;
65375;SDS011;51976;47.332;9.404;2024-01-30T07:54:12;7.90;;;3.80;;
65375;SDS011;51976;47.332;9.404;2024-01-30T07:56:40;11.82;;;3.67;;
65375;SDS011;51976;47.332;9.404;2024-01-30T07:59:09;16.50;;;3.75;;
65375;SDS011;51976;47.332;9.404;2024-01-30T08:01:35;7.10;;;3.65;;
65375;SDS011;51976;47.332;9.404;2024-01-30T08:04:01;11.15;;;4.22;;
65375;SDS011;51976;47.332;9.404;2024-01-30T08:06:26;20.23;;;7.72;;
65375;SDS011;51976;47.332;9.404;2024-01-30T08:08:52;17.33;;;6.47;;
65375;SDS011;51976;47.332;9.404;2024-01-30T08:11:20;19.63;;;7.15;;
65375;SDS011;51976;47.332;9.404;2024-01-30T08:13:50;23.25;;;6.75;;
65375;SDS011;51976;47.332;9.404;2024-01-30T08:16:18;23.63;;;8.55;;
65375;SDS011;51976;47.332;9.404;2024-01-30T08:18:44;26.98;;;8.20;;
65375;SDS011;51976;47.332;9.404;2024-01-30T08:21:09;14.10;;;6.20;;
65375;SDS011;51976;47.332;9.404;2024-01-30T08:23:35;16.55;;;6.45;;
65375;SDS011;51976;47.332;9.404;2024-01-30T08:26:01;20.15;;;7.38;;
65375;SDS011;51976;47.332;9.404;2024-01-30T08:28:27;21.88;;;9.50;;
65375;SDS011;51976;47.332;9.404;2024-01-30T08:30:53;19.52;;;7.72;;
65375;SDS011;51976;47.332;9.404;2024-01-30T08:33:18;15.48;;;7.55;;
65375;SDS011;51976;47.332;9.404;2024-01-30T08:35:43;11.45;;;5.88;;
65375;SDS011;51976;47.332;9.404;2024-01-30T08:38:09;10.13;;;5.60;;
65375;SDS011;51976;47.332;9.404;2024-01-30T08:40:37;12.90;;;6.18;;
65375;SDS011;51976;47.332;9.404;2024-01-30T08:43:02;12.15;;;5.70;;
65375;SDS011;51976;47.332;9.404;2024-01-30T08:45:28;11.48;;;4.95;;
65375;SDS011;51976;47.332;9.404;2024-01-30T08:47:55;11.30;;;4.10;;
65375;SDS011;51976;47.332;9.404;2024-01-30T08:50:21;11.68;;;4.97;;
65375;SDS011;51976;47.332;9.404;2024-01-30T08:52:46;10.40;;;3.83;;
65375;SDS011;51976;47.332;9.404;2024-01-30T08:55:11;9.30;;;5.10;;
65375;SDS011;51976;47.332;9.404;2024-01-30T08:57:37;18.58;;;6.57;;
65375;SDS011;51976;47.332;9.404;2024-01-30T09:00:04;7.65;;;3.63;;
65375;SDS011;51976;47.332;9.404;2024-01-30T09:02:31;5.15;;;2.97;;
65375;SDS011;51976;47.332;9.404;2024-01-30T09:04:57;13.57;;;5.82;;
65375;SDS011;51976;47.332;9.404;2024-01-30T09:07:23;5.10;;;3.28;;
65375;SDS011;51976;47.332;9.404;2024-01-30T09:09:48;5.57;;;3.10;;
65375;SDS011;51976;47.332;9.404;2024-01-30T09:12:14;9.45;;;3.80;;
65375;SDS011;51976;47.332;9.404;2024-01-30T09:14:40;7.35;;;3.17;;
65375;SDS011;51976;47.332;9.404;2024-01-30T09:17:06;5.10;;;3.03;;
65375;SDS011;51976;47.332;9.404;2024-01-30T09:19:32;5.22;;;2.35;;
65375;SDS011;51976;47.332;9.404;2024-01-30T09:21:57;6.15;;;3.00;;
65375;SDS011;51976;47.332;9.404;2024-01-30T09:24:23;6.47;;;3.80;;
65375;SDS011;51976;47.332;9.404;2024-01-30T09:26:48;6.40;;;3.60;;
65375;SDS011;51976;47.332;9.404;2024-01-30T09:29:14;6.20;;;2.83;;
65375;SDS011;51976;47.332;9.404;2024-01-30T09:31:42;5.40;;;3.20;;
65375;SDS011;51976;47.332;9.404;2024-01-30T09:34:08;5.95;;;3.33;;
65375;SDS011;51976;47.332;9.404;2024-01-30T09:36:34;10.23;;;4.47;;
65375;SDS011;51976;47.332;9.404;2024-01-30T09:38:59;5.43;;;3.05;;
65375;SDS011;51976;47.332;9.404;2024-01-30T09:41:26;3.92;;;2.42;;
65375;SDS011;51976;47.332;9.404;2024-01-30T09:43:52;4.97;;;2.63;;
65375;SDS011;51976;47.332;9.404;2024-01-30T09:46:21;7.60;;;2.13;;
65375;SDS011;51976;47.332;9.404;2024-01-30T09:48:52;4.00;;;1.90;;
65375;SDS011;51976;47.332;9.404;2024-01-30T09:51:20;4.65;;;1.88;;
65375;SDS011;51976;47.332;9.404;2024-01-30T09:53:47;3.30;;;2.25;;
65375;SDS011;51976;47.332;9.404;2024-01-30T09:56:16;4.20;;;2.08;;
65375;SDS011;51976;47.332;9.404;2024-01-30T09:58:41;2.90;;;1.90;;
65375;SDS011;51976;47.332;9.404;2024-01-30T10:01:07;6.55;;;2.35;;
65375;SDS011;51976;47.332;9.404;2024-01-30T10:03:32;4.28;;;2.45;;
65375;SDS011;51976;47.332;9.404;2024-01-30T10:05:58;4.93;;;2.10;;
65375;SDS011;51976;47.332;9.404;2024-01-30T10:08:26;5.68;;;2.33;;
65375;SDS011;51976;47.332;9.404;2024-01-30T10:10:51;3.30;;;2.03;;
65375;SDS011;51976;47.332;9.404;2024-01-30T10:13:17;3.17;;;1.60;;
65375;SDS011;51976;47.332;9.404;2024-01-30T10:15:44;3.45;;;1.55;;
65375;SDS011;51976;47.332;9.404;2024-01-30T10:18:10;2.10;;;1.42;;
65375;SDS011;51976;47.332;9.404;2024-01-30T10:20:36;4.30;;;2.85;;
65375;SDS011;51976;47.332;9.404;2024-01-30T10:23:02;2.58;;;1.42;;
65375;SDS011;51976;47.332;9.404;2024-01-30T10:25:28;2.58;;;1.52;;
65375;SDS011;51976;47.332;9.404;2024-01-30T10:27:53;3.03;;;1.70;;
65375;SDS011;51976;47.332;9.404;2024-01-30T10:30:20;2.25;;;1.30;;
65375;SDS011;51976;47.332;9.404;2024-01-30T10:32:47;5.13;;;1.40;;
65375;SDS011;51976;47.332;9.404;2024-01-30T10:35:12;5.03;;;2.03;;
65375;SDS011;51976;47.332;9.404;2024-01-30T10:37:38;3.60;;;1.48;;
65375;SDS011;51976;47.332;9.404;2024-01-30T10:40:04;3.08;;;1.55;;
65375;SDS011;51976;47.332;9.404;2024-01-30T10:42:31;5.55;;;2.28;;
65375;SDS011;51976;47.332;9.404;2024-01-30T10:45:00;6.60;;;2.55;;
65375;SDS011;51976;47.332;9.404;2024-01-30T10:47:32;5.30;;;2.60;;
65375;SDS011;51976;47.332;9.404;2024-01-30T10:50:00;10.05;;;2.10;;
65375;SDS011;51976;47.332;9.404;2024-01-30T10:52:27;3.72;;;2.05;;
65375;SDS011;51976;47.332;9.404;2024-01-30T10:54:54;6.25;;;1.88;;
65375;SDS011;51976;47.332;9.404;2024-01-30T10:57:20;4.13;;;1.27;;
65375;SDS011;51976;47.332;9.404;2024-01-30T10:59:48;4.35;;;1.17;;
65375;SDS011;51976;47.332;9.404;2024-01-30T11:02:14;5.93;;;1.48;;
65375;SDS011;51976;47.332;9.404;2024-01-30T11:04:41;5.07;;;1.23;;
65375;SDS011;51976;47.332;9.404;2024-01-30T11:07:15;2.45;;;1.10;;
65375;SDS011;51976;47.332;9.404;2024-01-30T11:09:51;4.80;;;1.55;;
65375;SDS011;51976;47.332;9.404;2024-01-30T11:12:21;3.22;;;1.20;;
65375;SDS011;51976;47.332;9.404;2024-01-30T11:14:48;2.70;;;1.25;;
65375;SDS011;51976;47.332;9.404;2024-01-30T11:17:13;3.65;;;1.23;;
65375;SDS011;51976;47.332;9.404;2024-01-30T11:19:38;5.25;;;2.08;;
65375;SDS011;51976;47.332;9.404;2024-01-30T11:22:07;5.88;;;2.08;;
65375;SDS011;51976;47.332;9.404;2024-01-30T11:24:41;3.10;;;1.30;;
65375;SDS011;51976;47.332;9.404;2024-01-30T11:27:09;2.30;;;1.40;;
65375;SDS011;51976;47.332;9.404;2024-01-30T11:29:35;3.22;;;1.08;;
65375;SDS011;51976;47.332;9.404;2024-01-30T11:32:01;2.40;;;1.23;;
65375;SDS011;51976;47.332;9.404;2024-01-30T11:34:27;2.42;;;1.50;;
65375;SDS011;51976;47.332;9.404;2024-01-30T11:36:56;4.85;;;1.40;;
65375;SDS011;51976;47.332;9.404;2024-01-30T11:39:24;3.58;;;1.55;;
65375;SDS011;51976;47.332;9.404;2024-01-30T11:41:52;5.82;;;1.80;;
65375;SDS011;51976;47.332;9.404;2024-01-30T11:44:21;6.65;;;3.78;;
65375;SDS011;51976;47.332;9.404;2024-01-30T11:46:50;11.38;;;6.70;;
65375;SDS011;51976;47.332;9.404;2024-01-30T11:49:16;10.00;;;2.90;;
65375;SDS011;51976;47.332;9.404;2024-01-30T11:51:42;6.30;;;3.38;;
65375;SDS011;51976;47.332;9.404;2024-01-30T11:54:08;2.28;;;1.60;;
65375;SDS011;51976;47.332;9.404;2024-01-30T11:56:34;3.75;;;1.50;;
65375;SDS011;51976;47.332;9.404;2024-01-30T11:59:01;7.47;;;4.80;;
65375;SDS011;51976;47.332;9.404;2024-01-30T12:01:27;8.27;;;5.13;;
65375;SDS011;51976;47.332;9.404;2024-01-30T12:03:53;3.67;;;1.58;;
65375;SDS011;51976;47.332;9.404;2024-01-30T12:06:18;4.95;;;3.15;;
65375;SDS011;51976;47.332;9.404;2024-01-30T12:08:55;2.70;;;1.65;;
65375;SDS011;51976;47.332;9.404;2024-01-30T12:11:25;3.47;;;1.73;;
65375;SDS011;51976;47.332;9.404;2024-01-30T12:13:51;2.65;;;0.90;;
65375;SDS011;51976;47.332;9.404;2024-01-30T12:16:17;2.67;;;1.00;;
65375;SDS011;51976;47.332;9.404;2024-01-30T12:18:43;2.58;;;1.08;;
65375;SDS011;51976;47.332;9.404;2024-01-30T12:21:08;4.50;;;2.63;;
65375;SDS011;51976;47.332;9.404;2024-01-30T12:23:34;2.95;;;1.70;;
65375;SDS011;51976;47.332;9.404;2024-01-30T12:26:00;3.80;;;1.73;;
65375;SDS011;51976;47.332;9.404;2024-01-30T12:28:27;2.75;;;1.20;;
65375;SDS011;51976;47.332;9.404;2024-01-30T12:30:56;3.85;;;1.90;;
65375;SDS011;51976;47.332;9.404;2024-01-30T12:33:26;2.28;;;1.30;;
65375;SDS011;51976;47.332;9.404;2024-01-30T12:35:54;2.17;;;1.38;;
65375;SDS011;51976;47.332;9.404;2024-01-30T12:38:19;4.15;;;2.45;;
65375;SDS011;51976;47.332;9.404;2024-01-30T12:40:45;6.03;;;2.88;;
65375;SDS011;51976;47.332;9.404;2024-01-30T12:43:13;4.50;;;1.73;;
65375;SDS011;51976;47.332;9.404;2024-01-30T12:45:39;4.63;;;2.33;;
65375;SDS011;51976;47.332;9.404;2024-01-30T12:48:07;2.85;;;1.20;;
65375;SDS011;51976;47.332;9.404;2024-01-30T12:50:34;2.17;;;1.15;;
65375;SDS011;51976;47.332;9.404;2024-01-30T12:52:59;2.58;;;0.90;;
65375;SDS011;51976;47.332;9.404;2024-01-30T12:55:25;7.30;;;1.20;;
65375;SDS011;51976;47.332;9.404;2024-01-30T12:57:54;4.07;;;1.38;;
65375;SDS011;51976;47.332;9.404;2024-01-30T13:00:21;2.38;;;1.23;;
65375;SDS011;51976;47.332;9.404;2024-01-30T13:02:50;3.00;;;1.38;;
65375;SDS011;51976;47.332;9.404;2024-01-30T13:05:15;3.22;;;1.50;;
65375;SDS011;51976;47.332;9.404;2024-01-30T13:07:41;2.58;;;1.50;;
65375;SDS011;51976;47.332;9.404;2024-01-30T13:10:07;2.13;;;1.20;;
65375;SDS011;51976;47.332;9.404;2024-01-30T13:12:32;2.75;;;1.35;;
65375;SDS011;51976;47.332;9.404;2024-01-30T13:14:58;4.15;;;1.52;;
65375;SDS011;51976;47.332;9.404;2024-01-30T13:17:26;4.18;;;1.27;;
65375;SDS011;51976;47.332;9.404;2024-01-30T13:19:52;5.30;;;1.75;;
65375;SDS011;51976;47.332;9.404;2024-01-30T13:22:19;8.90;;;2.35;;
65375;SDS011;51976;47.332;9.404;2024-01-30T13:24:46;5.93;;;2.40;;
65375;SDS011;51976;47.332;9.404;2024-01-30T13:27:12;6.22;;;2.53;;
65375;SDS011;51976;47.332;9.404;2024-01-30T13:29:38;5.93;;;2.75;;
65375;SDS011;51976;47.332;9.404;2024-01-30T13:32:03;5.00;;;2.47;;
65375;SDS011;51976;47.332;9.404;2024-01-30T13:34:29;7.60;;;3.00;;
65375;SDS011;51976;47.332;9.404;2024-01-30T13:36:55;3.90;;;2.60;;
65375;SDS011;51976;47.332;9.404;2024-01-30T13:39:21;3.72;;;2.75;;
65375;SDS011;51976;47.332;9.404;2024-01-30T13:41:46;5.20;;;3.15;;
65375;SDS011;51976;47.332;9.404;2024-01-30T13:44:14;5.15;;;3.00;;
65375;SDS011;51976;47.332;9.404;2024-01-30T13:46:41;6.70;;;3.28;;
65375;SDS011;51976;47.332;9.404;2024-01-30T13:49:08;4.43;;;3.17;;
65375;SDS011;51976;47.332;9.404;2024-01-30T13:51:34;5.65;;;2.80;;
65375;SDS011;51976;47.332;9.404;2024-01-30T13:54:00;4.82;;;2.83;;
65375;SDS011;51976;47.332;9.404;2024-01-30T13:56:25;8.75;;;2.40;;
65375;SDS011;51976;47.332;9.404;2024-01-30T13:58:52;30.98;;;3.92;;
65375;SDS011;51976;47.332;9.404;2024-01-30T14:01:17;8.80;;;2.88;;
65375;SDS011;51976;47.332;9.404;2024-01-30T14:03:42;5.60;;;2.78;;
65375;SDS011;51976;47.332;9.404;2024-01-30T14:06:08;5.57;;;2.72;;
65375;SDS011;51976;47.332;9.404;2024-01-30T14:08:34;8.27;;;3.03;;
65375;SDS011;51976;47.332;9.404;2024-01-30T14:11:00;9.82;;;3.75;;
65375;SDS011;51976;47.332;9.404;2024-01-30T14:13:25;6.60;;;3.25;;
65375;SDS011;51976;47.332;9.404;2024-01-30T14:15:51;11.40;;;3.25;;
65375;SDS011;51976;47.332;9.404;2024-01-30T14:18:17;6.18;;;3.22;;
65375;SDS011;51976;47.332;9.404;2024-01-30T14:20:43;4.68;;;2.60;;
65375;SDS011;51976;47.332;9.404;2024-01-30T14:23:09;4.13;;;2.60;;
65375;SDS011;51976;47.332;9.404;2024-01-30T14:25:34;5.78;;;2.58;;
65375;SDS011;51976;47.332;9.404;2024-01-30T14:27:59;4.63;;;2.03;;
65375;SDS011;51976;47.332;9.404;2024-01-30T14:30:25;4.15;;;1.75;;
65375;SDS011;51976;47.332;9.404;2024-01-30T14:32:50;1.27;;;0.60;;
65375;SDS011;51976;47.332;9.404;2024-01-30T14:35:16;1.60;;;0.70;;
65375;SDS011;51976;47.332;9.404;2024-01-30T14:37:42;6.82;;;1.70;;